Página principal
METAR-TAF:

METAR-TAF

Aeroportos :

Hagåtña, Guam, Estados Unidos

latitude: 13-29N, longitude: 144-48E, altura: 91 m

Observação actual do tempo

O boletim foi feito há 56 minutos, às 17:54 UTC
Vento 6 kt de sudeste
Temperatura 27°C
Humidade 94%
Pressão 1011 hPa
Visibilidade: 16.1 km
Poucas nuvensa uma altura de 1500 ft

METAR: PGUM 271754Z 14006KT 10SM FEW015 27/26 A2986 RMK AO2 SLP104 60028 T02670256 10272 20256 56015 $

Hora: 04:50 (18:50 UTC)

Previsão

O boletim foi feito há 1 hora e 23 minutos, às 17:27 UTC
Previsão válida de 27 às 18 UTC a 28 às 24 UTC
Vento 8 kt de es-sudeste
Visibilidade: 10 km
Poucas nuvensa uma altura de 1700 ft
Nuvens dispersasa uma altura de 5000 ft
Nuvens dispersasa uma altura de 11000 ft
aguaceiros nas vizinhanças

TAF: PGUM 271727Z 2718/2824 12008KT P6SM VCSH FEW017 SCT050 SCT110

Observações e previsões do tempo de mais de 4000 aeroportos (mensagens METAR e TAF).

As estações disponíveis são os pontos amarelos e vermelhos sobre o mapa.

Mova o rato sobre o mapa para ver o nome da estação.

Depois clique no ponto para visualizar as observações e previsões meteorológicas.

Para alterar o mapa : clique nos botões verdes com uma cruz preta para aumentar o zoom; no botão verde com uma pitada de zoom; ou nas setas verdes para mapas adjacentes.


METAR-TAF: